Аэропорт: Наримановка. Костанай

ICAO: UAUU

METAR:
2019/03/24 18:00
UAUU 241800Z 16003MPS CAVOK M00/M02 Q1021 R15/CLRD60 NOSIG RMK QFE749/0999
METAR:
2019/03/17 06:06
TAF TAF UAUU 170500Z 1706/1718 VRB02MPS 6000 BKN011 
      TEMPO 1706/1709 3100 BR